Time;durP1;ratioP1;P1;durP2;ratioP2;P2;SDS_P1;SDS_P2;PMS_P1;PMS_P2;Temp;Humidity;BMP_temperature;BMP_pressure;BME280_temperature;BME280_humidity;BME280_pressure;Samples;Min_cycle;Max_cycle;Signal;HPM_P1;HPM_P2
2023/08/12 00:01:51;;;;;;;5.45;3.08;;;;;19.00;94580.00;;;;7393668;19;20176;-78
2023/08/12 00:04:27;;;;;;;3.78;3.38;;;;;19.20;94579.00;;;;7390602;19;20204;-80
2023/08/12 00:06:56;;;;;;;3.30;3.00;;;;;19.40;94566.00;;;;7394879;19;20151;-77
2023/08/12 00:09:31;;;;;;;3.92;2.75;;;;;19.50;94562.00;;;;7395211;19;20142;-75
2023/08/12 00:12:11;;;;;;;3.80;3.25;;;;;19.50;94566.00;;;;7396845;19;20143;-76
2023/08/12 00:14:39;;;;;;;7.05;3.30;;;;;19.80;94560.00;;;;7394910;19;20580;-77
2023/08/12 00:17:13;;;;;;;3.60;3.05;;;;;19.80;94557.00;;;;7395452;19;20159;-79
2023/08/12 00:19:42;;;;;;;4.57;3.08;;;;;19.70;94549.00;;;;7394306;19;20124;-76
2023/08/12 00:22:16;;;;;;;3.83;3.15;;;;;19.70;94558.00;;;;7395098;19;20534;-78
2023/08/12 00:24:45;;;;;;;4.13;3.25;;;;;19.70;94553.00;;;;7396026;19;20144;-75
2023/08/12 00:27:20;;;;;;;3.30;3.00;;;;;19.70;94546.00;;;;7394096;19;20204;-78
2023/08/12 00:29:55;;;;;;;3.15;2.80;;;;;19.60;94555.00;;;;7385119;19;20155;-76
2023/08/12 00:32:30;;;;;;;4.75;3.03;;;;;19.50;94549.00;;;;7396394;19;20579;-76
2023/08/12 00:35:05;;;;;;;4.00;2.55;;;;;19.60;94549.00;;;;7395552;19;20560;-77
2023/08/12 00:37:39;;;;;;;3.80;3.00;;;;;19.80;94540.00;;;;7394263;19;20148;-75
2023/08/12 00:40:14;;;;;;;3.60;3.15;;;;;19.80;94543.00;;;;7394800;19;20149;-76
2023/08/12 00:42:42;;;;;;;3.28;2.97;;;;;19.70;94534.00;;;;7394272;19;20614;-78
2023/08/12 00:45:16;;;;;;;4.03;3.63;;;;;19.70;94534.00;;;;7394812;19;20143;-76
2023/08/12 00:47:44;;;;;;;3.15;2.85;;;;;19.80;94544.00;;;;7395873;19;20136;-76
2023/08/12 00:50:14;;;;;;;3.53;3.22;;;;;19.80;94538.00;;;;7396030;19;20449;-77
2023/08/12 00:52:50;;;;;;;3.33;3.00;;;;;19.80;94517.00;;;;7395452;19;20125;-77
2023/08/12 00:55:25;;;;;;;4.13;3.40;;;;;19.70;94530.00;;;;7393034;19;20604;-78
2023/08/12 00:58:00;;;;;;;3.35;3.03;;;;;19.70;94534.00;;;;7394504;19;20133;-77
2023/08/12 01:00:28;;;;;;;5.20;3.25;;;;;19.70;94526.00;;;;7393705;19;20240;-78
2023/08/12 01:03:05;;;;;;;2.88;2.67;;;;;19.80;94529.00;;;;7394872;19;20985;-78
2023/08/12 01:05:35;;;;;;;6.78;3.67;;;;;19.70;94519.00;;;;7393494;19;20132;-79
2023/08/12 01:08:12;;;;;;;7.13;2.80;;;;;20.00;94515.00;;;;7393635;19;20148;-77
2023/08/12 01:10:55;;;;;;;3.15;2.85;;;;;20.10;94517.00;;;;7393597;19;20162;-79
2023/08/12 01:13:37;;;;;;;5.55;3.08;;;;;20.10;94508.00;;;;7394283;19;20132;-78
2023/08/12 01:16:07;;;;;;;4.18;3.17;;;;;20.10;94507.00;;;;7391324;19;20141;-77
2023/08/12 01:18:44;;;;;;;4.05;3.00;;;;;20.30;94512.00;;;;7402586;19;20149;-78
2023/08/12 01:21:20;;;;;;;3.13;2.80;;;;;20.70;94508.00;;;;7401337;19;20141;-79
2023/08/12 01:23:57;;;;;;;3.63;3.30;;;;;21.10;94505.00;;;;7401617;19;20148;-79
2023/08/12 01:26:26;;;;;;;3.80;3.42;;;;;21.20;94498.00;;;;7401583;19;20619;-79
2023/08/12 01:29:03;;;;;;;3.17;2.88;;;;;21.30;94498.00;;;;7402783;19;20113;-77
2023/08/12 01:32:13;;;;;;;3.70;2.85;;;;;21.30;94496.00;;;;7402613;19;20170;-77
2023/08/12 01:34:57;;;;;;;4.28;3.10;;;;;21.20;94492.00;;;;7398209;19;20576;-78
2023/08/12 01:37:34;;;;;;;6.15;3.22;;;;;21.30;94493.00;;;;7403159;19;20140;-79
2023/08/12 01:40:04;;;;;;;4.38;3.58;;;;;21.40;94499.00;;;;7400642;19;20125;-80
2023/08/12 01:42:41;;;;;;;4.45;3.60;;;;;21.60;94493.00;;;;7402231;19;20136;-79
2023/08/12 01:45:19;;;;;;;3.85;3.45;;;;;21.70;94496.00;;;;7400679;19;20129;-79
2023/08/12 01:47:50;;;;;;;5.85;3.70;;;;;21.80;94496.00;;;;7401590;19;20137;-78
2023/08/12 01:50:25;;;;;;;5.43;3.53;;;;;21.80;94500.00;;;;7401340;19;20200;-79
2023/08/12 01:52:59;;;;;;;5.80;3.28;;;;;21.70;94495.00;;;;7402725;19;20630;-81
2023/08/12 01:55:35;;;;;;;4.65;3.53;;;;;21.60;94500.00;;;;7398651;19;20215;-78
2023/08/12 01:58:03;;;;;;;4.45;3.22;;;;;21.50;94501.00;;;;7401985;19;20133;-79
2023/08/12 02:00:37;;;;;;;6.15;3.33;;;;;21.30;94500.00;;;;7401277;19;20468;-76
2023/08/12 02:03:07;;;;;;;3.67;3.38;;;;;21.00;94499.00;;;;7399773;19;20241;-79
2023/08/12 02:05:43;;;;;;;5.68;3.50;;;;;21.00;94502.00;;;;7399165;19;20149;-75
2023/08/12 02:08:19;;;;;;;3.35;2.63;;;;;20.70;94505.00;;;;7401049;19;20204;-74
2023/08/12 02:11:01;;;;;;;4.57;2.78;;;;;20.60;94495.00;;;;7400163;19;20517;-77
2023/08/12 02:13:30;;;;;;;3.40;3.05;;;;;20.60;94500.00;;;;7400603;19;20214;-76
2023/08/12 02:16:04;;;;;;;4.97;3.20;;;;;20.40;94499.00;;;;7399695;19;20133;-77
2023/08/12 02:18:32;;;;;;;5.90;3.22;;;;;20.50;94498.00;;;;7399540;19;20595;-75
2023/08/12 02:21:06;;;;;;;4.57;3.35;;;;;20.50;94499.00;;;;7400303;19;20225;-78
2023/08/12 02:23:34;;;;;;;6.38;3.25;;;;;20.60;94492.00;;;;7402040;19;20180;-77
2023/08/12 02:26:09;;;;;;;6.35;3.42;;;;;20.90;94494.00;;;;7399035;19;20132;-76
2023/08/12 02:28:37;;;;;;;3.83;3.10;;;;;20.90;94483.00;;;;7399127;19;20204;-76
2023/08/12 02:31:11;;;;;;;6.05;3.05;;;;;20.70;94478.00;;;;7400595;19;20156;-85
2023/08/12 02:33:45;;;;;;;3.92;3.47;;;;;20.60;94488.00;;;;7400725;19;20133;-76
2023/08/12 02:36:19;;;;;;;5.68;3.10;;;;;20.50;94479.00;;;;7397809;19;20451;-77
2023/08/12 02:38:55;;;;;;;3.75;3.25;;;;;20.30;94490.00;;;;7399133;19;20524;-75
2023/08/12 02:41:29;;;;;;;3.15;2.85;;;;;20.00;94477.00;;;;7399696;19;20140;-76
2023/08/12 02:44:05;;;;;;;4.28;3.08;;;;;20.00;94480.00;;;;7400713;19;20600;-76
2023/08/12 02:46:41;;;;;;;3.25;2.95;;;;;20.10;94474.00;;;;7398611;19;20139;-76
2023/08/12 02:49:15;;;;;;;3.28;2.97;;;;;20.10;94475.00;;;;7399188;19;20316;-76
2023/08/12 02:51:43;;;;;;;4.55;3.30;;;;;20.10;94470.00;;;;7399397;19;20152;-77
2023/08/12 02:54:17;;;;;;;5.03;3.50;;;;;20.10;94464.00;;;;7401181;19;20587;-76
2023/08/12 02:56:45;;;;;;;7.47;3.50;;;;;20.40;94467.00;;;;7396507;19;20125;-77
2023/08/12 02:59:19;;;;;;;3.28;2.70;;;;;20.50;94467.00;;;;7400331;19;20133;-77
2023/08/12 03:01:47;;;;;;;3.53;3.20;;;;;20.50;94447.00;;;;7396844;19;20192;-77
2023/08/12 03:04:22;;;;;;;5.25;3.20;;;;;20.30;94454.00;;;;7397809;19;20140;-80
2023/08/12 03:06:50;;;;;;;4.22;3.40;;;;;20.40;94451.00;;;;7400378;19;20147;-76
2023/08/12 03:09:24;;;;;;;4.05;3.42;;;;;20.60;94454.00;;;;7398724;19;20128;-76
2023/08/12 03:12:02;;;;;;;4.20;3.67;;;;;20.90;94458.00;;;;7396642;19;20156;-77
2023/08/12 03:14:36;;;;;;;4.60;3.28;;;;;20.90;94453.00;;;;7396698;19;20612;-74
2023/08/12 03:17:07;;;;;;;3.38;3.08;;;;;21.00;94456.00;;;;7398442;19;20620;-77
2023/08/12 03:19:35;;;;;;;9.25;4.22;;;;;20.90;94453.00;;;;7398875;19;20219;-76
2023/08/12 03:22:11;;;;;;;3.70;3.15;;;;;21.00;94445.00;;;;7399019;19;20573;-79
2023/08/12 03:24:45;;;;;;;3.97;3.00;;;;;20.90;94452.00;;;;7392926;19;20146;-79
2023/08/12 03:27:19;;;;;;;3.95;2.95;;;;;20.90;94442.00;;;;7397217;19;20162;-76
2023/08/12 03:29:47;;;;;;;4.28;2.97;;;;;20.90;94444.00;;;;7398020;19;20147;-77
2023/08/12 03:32:27;;;;;;;3.95;3.33;;;;;20.80;94445.00;;;;7400135;19;20513;-76
2023/08/12 03:34:55;;;;;;;6.53;3.50;;;;;20.70;94451.00;;;;7396149;19;20610;-76
2023/08/12 03:37:29;;;;;;;4.93;3.00;;;;;20.70;94443.00;;;;7399007;19;20121;-75
2023/08/12 03:40:03;;;;;;;7.47;3.38;;;;;20.60;94440.00;;;;7398215;19;20193;-81
2023/08/12 03:42:39;;;;;;;4.63;3.25;;;;;20.60;94449.00;;;;7397776;19;20140;-77
2023/08/12 03:45:07;;;;;;;3.60;3.30;;;;;20.70;94444.00;;;;7397529;19;20125;-77
2023/08/12 03:47:41;;;;;;;4.95;3.15;;;;;20.70;94443.00;;;;7396539;19;20524;-76
2023/08/12 03:50:09;;;;;;;3.65;3.20;;;;;20.70;94444.00;;;;7398096;19;20163;-78
2023/08/12 03:52:43;;;;;;;4.32;3.42;;;;;20.80;94444.00;;;;7398750;19;20150;-78
2023/08/12 03:55:11;;;;;;;5.13;3.38;;;;;20.80;94441.00;;;;7391502;19;20519;-76
2023/08/12 03:57:45;;;;;;;4.25;3.50;;;;;20.80;94444.00;;;;7395971;19;20615;-74
2023/08/12 04:00:19;;;;;;;4.38;3.95;;;;;20.80;94459.00;;;;7398029;19;20471;-77
2023/08/12 04:02:54;;;;;;;3.80;3.40;;;;;20.70;94451.00;;;;7396953;19;20603;-78
2023/08/12 04:05:29;;;;;;;4.05;3.33;;;;;20.60;94449.00;;;;7397385;19;20139;-76
2023/08/12 04:07:57;;;;;;;5.65;3.70;;;;;20.70;94450.00;;;;7397448;19;20152;-79
2023/08/12 04:10:24;;;;;;;6.57;3.40;;;;;20.50;94441.00;;;;7396899;19;20141;-78
2023/08/12 04:13:07;;;;;;;3.83;3.05;;;;;20.50;94452.00;;;;7394613;19;20630;-78
2023/08/12 04:15:42;;;;;;;3.80;3.40;;;;;20.50;94459.00;;;;7396161;19;20489;-78
2023/08/12 04:18:19;;;;;;;8.07;3.85;;;;;20.50;94460.00;;;;7396963;19;20614;-75
2023/08/12 04:20:56;;;;;;;4.10;3.70;;;;;20.50;94455.00;;;;7396600;19;20455;-77
2023/08/12 04:23:26;;;;;;;4.68;3.47;;;;;20.60;94458.00;;;;7396984;19;20157;-78
2023/08/12 04:26:01;;;;;;;3.47;3.17;;;;;20.70;94463.00;;;;7397813;19;20139;-77
2023/08/12 04:28:34;;;;;;;5.03;3.35;;;;;20.80;94461.00;;;;7395442;19;20129;-79
2023/08/12 04:31:08;;;;;;;3.90;3.05;;;;;20.80;94464.00;;;;7395075;19;20137;-79
2023/08/12 04:33:36;;;;;;;4.07;3.25;;;;;20.80;94448.00;;;;7395218;19;20196;-77
2023/08/12 04:36:11;;;;;;;8.23;4.07;;;;;20.90;94454.00;;;;7394849;19;20638;-80
2023/08/12 04:38:45;;;;;;;4.25;3.47;;;;;20.90;94432.00;;;;7397663;19;20147;-77
2023/08/12 04:41:13;;;;;;;5.13;3.30;;;;;20.80;94435.00;;;;7397281;19;20133;-80
2023/08/12 04:43:47;;;;;;;8.32;3.47;;;;;20.60;94437.00;;;;7392738;19;20125;-77
2023/08/12 04:46:15;;;;;;;4.05;3.58;;;;;20.40;94441.00;;;;7395990;19;20141;-79
2023/08/12 04:48:50;;;;;;;3.95;3.55;;;;;20.30;94439.00;;;;7396476;19;20129;-77
2023/08/12 04:51:24;;;;;;;5.03;3.63;;;;;20.40;94438.00;;;;7400218;19;20599;-78
2023/08/12 04:54:01;;;;;;;3.90;3.35;;;;;20.70;94437.00;;;;7401723;19;20140;-77
2023/08/12 04:56:29;;;;;;;6.20;3.53;;;;;20.70;94436.00;;;;7401693;19;20531;-77
2023/08/12 04:59:03;;;;;;;4.85;3.75;;;;;20.50;94435.00;;;;7403130;19;20159;-77
2023/08/12 05:01:32;;;;;;;5.90;3.40;;;;;20.70;94426.00;;;;7403502;19;20697;-77
2023/08/12 05:04:25;;;;;;;3.67;3.35;;;;;20.80;94440.00;;;;7403546;19;20153;-79
2023/08/12 05:06:59;;;;;;;4.25;3.33;;;;;20.70;94439.00;;;;7400803;19;20129;-79
2023/08/12 05:09:31;;;;;;;5.28;3.50;;;;;20.70;94440.00;;;;7403338;19;20137;-78
2023/08/12 05:12:15;;;;;;;4.55;3.40;;;;;20.80;94435.00;;;;7399331;19;20519;-79
2023/08/12 05:14:42;;;;;;;4.57;3.60;;;;;20.70;94434.00;;;;7402148;19;20156;-81
2023/08/12 05:17:16;;;;;;;5.88;3.47;;;;;20.70;94440.00;;;;7399469;19;20212;-78
2023/08/12 05:19:53;;;;;;;4.10;3.70;;;;;20.60;94436.00;;;;7403170;19;20149;-78
2023/08/12 05:22:30;;;;;;;6.10;3.78;;;;;20.40;94455.00;;;;7403512;19;20445;-78
2023/08/12 05:25:06;;;;;;;3.75;3.40;;;;;19.90;94446.00;;;;7406426;19;20132;-78
2023/08/12 05:27:41;;;;;;;5.68;3.97;;;;;19.40;94442.00;;;;7404067;19;20159;-79
2023/08/12 05:30:10;;;;;;;6.40;4.45;;;;;19.20;94448.00;;;;7401289;19;20149;-77
2023/08/12 05:32:44;;;;;;;7.43;4.10;;;;;19.10;94448.00;;;;7403878;19;20144;-78
2023/08/12 05:35:19;;;;;;;6.32;4.15;;;;;19.10;94453.00;;;;7400756;19;20144;-79
2023/08/12 05:37:56;;;;;;;5.68;4.47;;;;;18.90;94449.00;;;;7399176;19;20175;-78
2023/08/12 05:40:24;;;;;;;5.15;4.50;;;;;19.00;94449.00;;;;7398483;19;20151;-77
2023/08/12 05:42:58;;;;;;;5.47;4.97;;;;;19.00;94453.00;;;;7400556;19;20159;-79
2023/08/12 05:45:32;;;;;;;7.45;5.15;;;;;18.90;94459.00;;;;7397357;19;20540;-76
2023/08/12 05:48:00;;;;;;;5.57;4.75;;;;;19.00;94450.00;;;;7402951;19;20156;-78
2023/08/12 05:50:34;;;;;;;14.65;5.57;;;;;19.20;94454.00;;;;7400273;19;20144;-78
2023/08/12 05:53:03;;;;;;;6.13;4.95;;;;;19.30;94448.00;;;;7402673;19;20137;-78
2023/08/12 05:55:38;;;;;;;4.68;4.18;;;;;19.40;94451.00;;;;7402378;19;20145;-78
2023/08/12 05:58:11;;;;;;;7.03;5.10;;;;;19.60;94444.00;;;;7403012;19;20141;-77
2023/08/12 06:00:45;;;;;;;4.88;4.45;;;;;19.80;94437.00;;;;7401021;19;20133;-76
2023/08/12 06:03:19;;;;;;;5.30;4.00;;;;;20.00;94436.00;;;;7398100;19;20579;-76
2023/08/12 06:05:47;;;;;;;5.13;4.63;;;;;20.20;94427.00;;;;7401351;19;20140;-75
2023/08/12 06:08:21;;;;;;;5.03;4.45;;;;;20.30;94441.00;;;;7403150;19;20469;-78
2023/08/12 06:10:49;;;;;;;4.82;4.20;;;;;20.60;94434.00;;;;7399197;19;20149;-74
2023/08/12 06:13:30;;;;;;;4.32;3.95;;;;;20.90;94442.00;;;;7400328;19;20145;-78
2023/08/12 06:16:05;;;;;;;5.20;3.70;;;;;21.10;94444.00;;;;7387959;19;20176;-79
2023/08/12 06:18:33;;;;;;;6.32;4.00;;;;;21.30;94438.00;;;;7387630;19;20585;-79
2023/08/12 06:21:01;;;;;;;4.75;3.80;;;;;21.50;94439.00;;;;7394211;19;20668;-79
2023/08/12 06:23:35;;;;;;;6.32;3.90;;;;;21.50;94442.00;;;;7392660;19;20129;-78
2023/08/12 06:26:09;;;;;;;5.10;3.78;;;;;21.60;94435.00;;;;7394071;19;20144;-79
2023/08/12 06:28:45;;;;;;;6.40;3.78;;;;;21.40;94439.00;;;;7395381;19;20133;-77
2023/08/12 06:31:22;;;;;;;5.30;3.60;;;;;21.40;94432.00;;;;7396059;19;20152;-78
2023/08/12 06:33:57;;;;;;;5.50;3.67;;;;;21.40;94433.00;;;;7396173;19;20131;-77
2023/08/12 06:36:32;;;;;;;4.07;3.40;;;;;21.50;94432.00;;;;7394766;19;20163;-79
2023/08/12 06:39:00;;;;;;;5.32;3.60;;;;;21.50;94435.00;;;;7395128;19;20183;-77
2023/08/12 06:41:36;;;;;;;4.68;4.03;;;;;21.50;94433.00;;;;7395927;19;20144;-77
2023/08/12 06:44:07;;;;;;;9.48;3.38;;;;;21.50;94421.00;;;;7398092;19;20508;-78
2023/08/12 06:46:43;;;;;;;3.80;3.50;;;;;21.70;94420.00;;;;7394704;19;20155;-77
2023/08/12 06:49:12;;;;;;;4.45;3.60;;;;;22.10;94426.00;;;;7397269;19;20150;-77
2023/08/12 06:51:50;;;;;;;4.65;3.42;;;;;22.50;94412.00;;;;7396349;19;20153;-77
2023/08/12 06:54:18;;;;;;;3.90;3.42;;;;;22.90;94416.00;;;;7397123;19;20151;-78
2023/08/12 06:56:52;;;;;;;5.38;3.67;;;;;23.10;94412.00;;;;7399234;19;20502;-79
2023/08/12 06:59:29;;;;;;;5.65;3.33;;;;;22.90;94410.00;;;;7403638;19;20506;-79
2023/08/12 07:02:07;;;;;;;3.83;3.20;;;;;23.10;94419.00;;;;7402420;19;20515;-80
2023/08/12 07:04:43;;;;;;;3.20;2.90;;;;;23.50;94424.00;;;;7400124;19;20488;-79
2023/08/12 07:07:17;;;;;;;5.80;3.22;;;;;23.90;94420.00;;;;7397716;19;20136;-80
2023/08/12 07:09:53;;;;;;;5.93;3.35;;;;;24.10;94434.00;;;;7398457;19;20200;-80
2023/08/12 07:12:28;;;;;;;3.80;3.50;;;;;23.80;94435.00;;;;7391933;19;20195;-79
2023/08/12 07:15:05;;;;;;;7.95;3.35;;;;;23.60;94435.00;;;;7388662;19;20135;-79
2023/08/12 07:17:33;;;;;;;3.75;3.40;;;;;23.90;94421.00;;;;7394163;19;20133;-78
2023/08/12 07:20:08;;;;;;;4.47;3.05;;;;;24.30;94420.00;;;;7393943;19;20224;-80
2023/08/12 07:22:36;;;;;;;3.83;3.17;;;;;24.80;94409.00;;;;7393876;19;20129;-79
2023/08/12 07:25:10;;;;;;;3.45;3.13;;;;;25.20;94408.00;;;;7387120;19;20151;-78
2023/08/12 07:27:45;;;;;;;4.40;4.00;;;;;25.60;94410.00;;;;7387604;19;20500;-79
2023/08/12 07:30:20;;;;;;;3.88;3.30;;;;;25.80;94401.00;;;;7384963;19;20147;-78
2023/08/12 07:32:48;;;;;;;5.78;3.05;;;;;26.20;94405.00;;;;7384937;19;20144;-79
2023/08/12 07:35:23;;;;;;;3.88;3.15;;;;;26.50;94394.00;;;;7388402;19;20192;-78
2023/08/12 07:37:51;;;;;;;3.60;3.30;;;;;26.60;94400.00;;;;7386739;19;20607;-79
2023/08/12 07:40:25;;;;;;;4.00;3.60;;;;;27.00;94391.00;;;;7387291;19;20591;-79
2023/08/12 07:42:54;;;;;;;4.70;3.15;;;;;27.20;94406.00;;;;7385970;19;20609;-78
2023/08/12 07:45:33;;;;;;;3.40;3.10;;;;;27.20;94407.00;;;;7385364;19;20133;-78
2023/08/12 07:48:13;;;;;;;3.85;2.83;;;;;26.80;94406.00;;;;7384316;19;20224;-78
2023/08/12 07:50:54;;;;;;;3.10;2.85;;;;;26.80;94410.00;;;;7387064;19;20136;-78
2023/08/12 07:53:30;;;;;;;4.88;2.97;;;;;26.80;94411.00;;;;7385955;19;20133;-77
2023/08/12 07:56:05;;;;;;;5.90;3.00;;;;;26.60;94416.00;;;;7381514;19;20169;-81
2023/08/12 07:58:39;;;;;;;4.30;2.72;;;;;26.60;94415.00;;;;7384854;19;20136;-78
2023/08/12 08:01:13;;;;;;;2.95;2.72;;;;;26.30;94420.00;;;;7383449;19;20267;-77
2023/08/12 08:03:47;;;;;;;5.82;3.03;;;;;26.00;94408.00;;;;7385188;19;20145;-79
2023/08/12 08:06:23;;;;;;;3.75;3.10;;;;;25.70;94412.00;;;;7388935;19;20129;-78
2023/08/12 08:09:00;;;;;;;3.67;3.10;;;;;25.80;94418.00;;;;7387117;19;20531;-78
2023/08/12 08:11:41;;;;;;;4.35;3.67;;;;;26.40;94402.00;;;;7385548;19;20511;-80
2023/08/12 08:14:17;;;;;;;3.67;3.25;;;;;26.90;94402.00;;;;7388280;19;20149;-78
2023/08/12 08:16:52;;;;;;;4.30;3.20;;;;;26.90;94408.00;;;;7384307;19;20140;-79
2023/08/12 08:19:41;;;;;;;5.60;3.42;;;;;27.00;94417.00;;;;7389011;19;20147;-79
2023/08/12 08:22:21;;;;;;;3.95;3.40;;;;;27.20;94400.00;;;;7386996;19;20240;-79
2023/08/12 08:24:49;;;;;;;3.95;3.45;;;;;27.00;94420.00;;;;7386072;19;20137;-78
2023/08/12 08:27:24;;;;;;;4.10;3.55;;;;;27.10;94397.00;;;;7385097;19;20155;-79
2023/08/12 08:29:52;;;;;;;6.38;3.65;;;;;27.50;94401.00;;;;7386593;19;20149;-79
2023/08/12 08:32:28;;;;;;;3.95;3.08;;;;;27.90;94387.00;;;;7387891;19;20144;-78
2023/08/12 08:35:03;;;;;;;3.85;3.47;;;;;28.30;94409.00;;;;7381352;19;20174;-78
2023/08/12 08:37:43;;;;;;;8.38;4.05;;;;;27.90;94406.00;;;;7381874;19;20580;-80
2023/08/12 08:40:18;;;;;;;8.10;3.70;;;;;27.50;94394.00;;;;7382027;19;20155;-79
2023/08/12 08:43:00;;;;;;;4.80;3.08;;;;;28.00;94397.00;;;;7383810;19;20625;-77
2023/08/12 08:45:35;;;;;;;3.65;3.28;;;;;28.80;94393.00;;;;7381508;19;20184;-79
2023/08/12 08:48:14;;;;;;;4.55;3.40;;;;;29.30;94398.00;;;;7380989;19;20140;-77
2023/08/12 08:50:45;;;;;;;3.80;3.40;;;;;29.60;94403.00;;;;7386888;19;20128;-78
2023/08/12 08:53:21;;;;;;;4.25;3.35;;;;;29.40;94391.00;;;;7386323;19;20137;-78
2023/08/12 08:55:56;;;;;;;5.65;3.13;;;;;29.70;94398.00;;;;7383486;19;20144;-77
2023/08/12 08:58:31;;;;;;;3.90;3.28;;;;;29.80;94388.00;;;;7382758;19;20156;-78
2023/08/12 09:00:59;;;;;;;4.47;3.65;;;;;30.00;94394.00;;;;7381035;19;20191;-78
2023/08/12 09:03:38;;;;;;;3.95;3.55;;;;;29.80;94392.00;;;;7385385;19;20195;-80
2023/08/12 09:06:07;;;;;;;3.38;3.08;;;;;30.20;94407.00;;;;7383482;19;20137;-78
2023/08/12 09:08:47;;;;;;;3.53;3.20;;;;;30.40;94390.00;;;;7382520;19;20482;-80
2023/08/12 09:11:17;;;;;;;6.70;4.05;;;;;31.00;94392.00;;;;7384389;19;20164;-80
2023/08/12 09:13:58;;;;;;;4.38;2.90;;;;;31.00;94412.00;;;;7383951;19;20140;-80
2023/08/12 09:16:26;;;;;;;5.32;3.05;;;;;30.20;94408.00;;;;7379286;19;20147;-78
2023/08/12 09:19:01;;;;;;;4.82;2.97;;;;;29.40;94410.00;;;;7381337;19;22666;-78
2023/08/12 09:21:30;;;;;;;4.95;2.50;;;;;29.00;94408.00;;;;7379273;19;20184;-77
2023/08/12 09:24:05;;;;;;;5.28;2.70;;;;;28.10;94393.00;;;;7378955;19;20151;-77
2023/08/12 09:26:32;;;;;;;5.25;2.85;;;;;28.20;94402.00;;;;7377549;19;20144;-76
2023/08/12 09:29:08;;;;;;;4.05;2.92;;;;;28.20;94397.00;;;;7378450;19;20144;-76
2023/08/12 09:31:42;;;;;;;5.45;2.60;;;;;28.50;94400.00;;;;7380501;19;20133;-76
2023/08/12 09:34:18;;;;;;;3.55;2.90;;;;;28.70;94403.00;;;;7380242;19;20132;-75
2023/08/12 09:36:47;;;;;;;2.80;2.50;;;;;28.80;94410.00;;;;7377189;19;20145;-76
2023/08/12 09:39:22;;;;;;;8.30;2.67;;;;;28.90;94425.00;;;;7387106;19;20167;-77
2023/08/12 09:41:51;;;;;;;4.63;2.42;;;;;29.00;94410.00;;;;7386923;19;20139;-77
2023/08/12 09:44:26;;;;;;;4.47;2.60;;;;;29.40;94395.00;;;;7381966;19;20152;-75
2023/08/12 09:46:58;;;;;;;3.13;2.80;;;;;30.00;94388.00;;;;7384620;19;20611;-77
2023/08/12 09:49:32;;;;;;;5.50;2.70;;;;;29.90;94401.00;;;;7387186;19;20200;-77
2023/08/12 09:52:08;;;;;;;6.55;2.63;;;;;29.80;94409.00;;;;7384381;19;20128;-75
2023/08/12 09:54:47;;;;;;;7.07;2.63;;;;;29.60;94395.00;;;;7385095;19;20148;-75
2023/08/12 09:57:20;;;;;;;5.60;2.83;;;;;29.30;94383.00;;;;7387651;19;20184;-77
2023/08/12 09:59:56;;;;;;;3.58;2.70;;;;;29.70;94391.00;;;;7385128;19;20168;-74
2023/08/12 10:02:31;;;;;;;4.72;3.00;;;;;29.40;94380.00;;;;7384369;19;20182;-76
2023/08/12 10:05:08;;;;;;;3.67;2.50;;;;;29.70;94372.00;;;;7384221;19;20132;-75
2023/08/12 10:07:45;;;;;;;5.13;2.60;;;;;29.80;94368.00;;;;7386185;19;20149;-76
2023/08/12 10:10:14;;;;;;;4.85;2.95;;;;;29.70;94368.00;;;;7385196;19;20144;-77
2023/08/12 10:12:56;;;;;;;4.68;2.58;;;;;30.00;94391.00;;;;7383479;19;20515;-73
2023/08/12 10:15:30;;;;;;;8.35;2.90;;;;;29.90;94393.00;;;;7385165;19;20136;-75
2023/08/12 10:18:06;;;;;;;6.38;2.88;;;;;29.60;94366.00;;;;7384993;19;20154;-75
2023/08/12 10:20:39;;;;;;;4.75;2.67;;;;;29.50;94392.00;;;;7385485;19;20148;-74
2023/08/12 10:23:17;;;;;;;2.88;2.47;;;;;29.60;94393.00;;;;7386222;19;20618;-74
2023/08/12 10:25:49;;;;;;;5.55;2.60;;;;;29.10;94368.00;;;;7388303;19;20144;-78
2023/08/12 10:28:25;;;;;;;6.13;2.88;;;;;29.70;94400.00;;;;7391179;19;20175;-78
2023/08/12 10:31:00;;;;;;;3.10;2.55;;;;;29.40;94390.00;;;;7392601;19;20128;-79
2023/08/12 10:33:42;;;;;;;5.85;3.20;;;;;29.90;94412.00;;;;7389833;19;20467;-78
2023/08/12 10:36:10;;;;;;;3.47;2.58;;;;;29.50;94383.00;;;;7391323;19;20144;-79
2023/08/12 10:38:47;;;;;;;5.65;2.78;;;;;29.70;94392.00;;;;7390985;19;20148;-79
2023/08/12 10:41:22;;;;;;;5.82;2.47;;;;;29.00;94408.00;;;;7392259;19;20710;-82
2023/08/12 10:44:03;;;;;;;4.20;3.00;;;;;28.40;94417.00;;;;7391175;19;20637;-79
2023/08/12 10:46:39;;;;;;;3.42;2.70;;;;;28.00;94406.00;;;;7391694;19;20149;-81
2023/08/12 10:49:13;;;;;;;4.18;2.85;;;;;28.20;94408.00;;;;7393802;19;20151;-80
2023/08/12 10:51:53;;;;;;;4.25;2.80;;;;;28.20;94408.00;;;;7395422;19;20565;-82
2023/08/12 10:54:31;;;;;;;3.88;2.72;;;;;28.20;94411.00;;;;7390959;19;20144;-79
2023/08/12 10:57:11;;;;;;;4.28;2.80;;;;;28.10;94414.00;;;;7390273;19;20145;-81
2023/08/12 10:59:50;;;;;;;5.32;3.03;;;;;28.50;94402.00;;;;7388612;19;21460;-80
2023/08/12 11:02:36;;;;;;;8.90;2.90;;;;;29.40;94372.00;;;;7390024;19;20257;-79
2023/08/12 11:05:10;;;;;;;4.18;2.67;;;;;29.90;94407.00;;;;7388816;19;20129;-79
2023/08/12 11:07:56;;;;;;;5.40;3.05;;;;;30.30;94382.00;;;;7384377;19;20160;-77
2023/08/12 11:10:27;;;;;;;4.25;3.00;;;;;32.00;94390.00;;;;7387442;19;20144;-80
2023/08/12 11:13:08;;;;;;;3.72;3.42;;;;;31.20;94418.00;;;;7387705;19;20534;-77
2023/08/12 11:15:46;;;;;;;5.22;3.40;;;;;29.60;94413.00;;;;7390127;19;20171;-84
2023/08/12 11:18:20;;;;;;;4.30;4.00;;;;;29.20;94413.00;;;;7388466;19;20580;-83
2023/08/12 11:20:51;;;;;;;5.85;3.83;;;;;29.00;94411.00;;;;7381131;19;20155;-82
2023/08/12 11:23:20;;;;;;;4.35;3.60;;;;;28.60;94405.00;;;;7383166;19;20156;-80
2023/08/12 11:25:54;;;;;;;4.13;3.72;;;;;28.60;94390.00;;;;7383762;19;20173;-84
2023/08/12 11:28:24;;;;;;;4.07;3.78;;;;;28.60;94404.00;;;;7382615;19;20158;-79
2023/08/12 11:31:00;;;;;;;4.47;3.85;;;;;28.40;94388.00;;;;7380168;19;20131;-79
2023/08/12 11:33:34;;;;;;;6.38;4.05;;;;;28.60;94403.00;;;;7383989;19;20988;-79
2023/08/12 11:36:09;;;;;;;7.97;3.92;;;;;28.20;94397.00;;;;7383507;19;20478;-79
2023/08/12 11:38:41;;;;;;;6.32;4.07;;;;;27.80;94407.00;;;;7381938;19;20480;-79
2023/08/12 11:41:18;;;;;;;6.93;4.38;;;;;27.40;94414.00;;;;7382633;19;20162;-77
2023/08/12 11:43:45;;;;;;;5.32;4.18;;;;;27.30;94424.00;;;;7375926;19;20133;-78
2023/08/12 11:46:21;;;;;;;6.03;4.05;;;;;26.80;94416.00;;;;7381167;19;20900;-77
2023/08/12 11:48:48;;;;;;;5.40;3.80;;;;;26.30;94423.00;;;;7381298;19;20137;-79
2023/08/12 11:51:23;;;;;;;6.60;3.95;;;;;26.40;94408.00;;;;7383780;19;20136;-80
2023/08/12 11:53:58;;;;;;;4.20;3.63;;;;;26.50;94409.00;;;;7380163;19;20125;-79
2023/08/12 11:56:26;;;;;;;5.68;3.72;;;;;26.50;94413.00;;;;7382513;19;20156;-78
2023/08/12 11:59:02;;;;;;;5.07;4.40;;;;;26.10;94433.00;;;;7380892;19;20530;-78
2023/08/12 12:01:36;;;;;;;5.50;3.63;;;;;26.00;94450.00;;;;7377368;19;20224;-78
2023/08/12 12:04:11;;;;;;;4.93;3.83;;;;;25.70;94450.00;;;;7382333;19;20129;-79
2023/08/12 12:06:45;;;;;;;4.72;3.55;;;;;25.70;94446.00;;;;7381610;19;20611;-79
2023/08/12 12:09:20;;;;;;;4.43;4.00;;;;;25.60;94456.00;;;;7381948;19;20137;-80
2023/08/12 12:12:00;;;;;;;5.15;4.03;;;;;25.60;94453.00;;;;7377526;19;20216;-74
2023/08/12 12:14:40;;;;;;;5.13;3.88;;;;;25.20;94454.00;;;;7383017;19;20152;-79
2023/08/12 12:17:13;;;;;;;4.32;3.28;;;;;25.10;94455.00;;;;7381087;19;20132;-81
2023/08/12 12:19:51;;;;;;;5.00;3.60;;;;;25.20;94444.00;;;;7382064;19;21017;-79
2023/08/12 12:22:19;;;;;;;5.32;2.90;;;;;25.00;94455.00;;;;7380457;19;20149;-79
2023/08/12 12:24:53;;;;;;;4.70;3.20;;;;;24.90;94451.00;;;;7382480;19;20159;-80
2023/08/12 12:27:21;;;;;;;6.40;3.17;;;;;24.80;94451.00;;;;7383577;19;20128;-76
2023/08/12 12:29:56;;;;;;;5.95;2.90;;;;;25.10;94423.00;;;;7379564;19;20141;-78
2023/08/12 12:32:27;;;;;;;3.10;2.80;;;;;27.30;94414.00;;;;7379296;19;20129;-79
2023/08/12 12:35:03;;;;;;;2.97;2.47;;;;;28.40;94414.00;;;;7384632;19;20144;-79
2023/08/12 12:37:32;;;;;;;4.03;2.80;;;;;28.50;94420.00;;;;7380831;19;20128;-78
2023/08/12 12:40:07;;;;;;;4.55;2.88;;;;;28.80;94425.00;;;;7377425;19;20148;-76
2023/08/12 12:42:35;;;;;;;3.85;2.80;;;;;27.80;94438.00;;;;7376812;19;20598;-77
2023/08/12 12:45:09;;;;;;;3.30;2.47;;;;;27.30;94444.00;;;;7378136;19;20608;-80
2023/08/12 12:47:44;;;;;;;4.40;2.47;;;;;27.00;94447.00;;;;7377345;19;20216;-77
2023/08/12 12:50:24;;;;;;;4.05;2.90;;;;;26.80;94444.00;;;;7373923;19;20588;-79
2023/08/12 12:52:52;;;;;;;3.78;2.58;;;;;26.80;94450.00;;;;7375535;19;20192;-78